VIR75 EGCC-KMCO
Flight info
| Callsign | VIR75 |
|---|---|
| Flight time | N/A |
| Altitude | 32000 |
| Route | DCT EKLAD UY53 WAL L10 PENIL M144 BAGSO DCT NEBIN/M085F320 DCT 5330N02000W 5330N03000W 53N040W 52N050W DCT TUDEP DCT CARAC M201 VIRST Y494 WHOOS/N0499F320 Y494 AYCHB Y493 JENKS DCT 30N080W DCT OMN BITHO7 |
| Aircraft | B742/H-SDFHIRWXY/L |
Departure
| Time | N/A |
|---|---|
| Airport | Manchester Airport (EGCC) |
Arrival
| Time | 2026-05-04 06:44 |
|---|---|
| Airport | Orlando International Airport (KMCO) |
| Time | Latitude | Longitude | Altitude | Speed | Heading |
|---|---|---|---|---|---|
| 2026-05-04 05:17 | 32.95961 | -75.56752 | 32136 ft | 379 kts | 232° |
| 2026-05-04 05:17 | 32.94256 | -75.59161 | 32134 ft | 379 kts | 232° |
| 2026-05-04 05:18 | 32.90847 | -75.63972 | 32127 ft | 379 kts | 232° |
| 2026-05-04 05:18 | 32.87433 | -75.68745 | 32128 ft | 378 kts | 231° |
| 2026-05-04 05:19 | 32.84021 | -75.73493 | 32131 ft | 379 kts | 231° |
| 2026-05-04 05:19 | 32.80597 | -75.78282 | 32132 ft | 377 kts | 231° |
| 2026-05-04 05:20 | 32.77223 | -75.83009 | 32132 ft | 379 kts | 231° |
| 2026-05-04 05:20 | 32.73793 | -75.87815 | 32131 ft | 381 kts | 231° |
| 2026-05-04 05:21 | 32.70374 | -75.92602 | 32129 ft | 378 kts | 231° |
| 2026-05-04 05:21 | 32.66959 | -75.97379 | 32129 ft | 381 kts | 231° |
| 2026-05-04 05:22 | 32.63543 | -76.02148 | 32126 ft | 380 kts | 231° |
| 2026-05-04 05:22 | 32.60127 | -76.06914 | 32129 ft | 379 kts | 231° |
| 2026-05-04 05:23 | 32.56680 | -76.11717 | 32126 ft | 381 kts | 231° |
| 2026-05-04 05:23 | 32.53267 | -76.16466 | 32128 ft | 380 kts | 231° |
| 2026-05-04 05:24 | 32.49826 | -76.21249 | 32130 ft | 380 kts | 231° |
| 2026-05-04 05:24 | 32.46384 | -76.26027 | 32127 ft | 381 kts | 231° |
| 2026-05-04 05:25 | 32.42948 | -76.30788 | 32126 ft | 379 kts | 231° |
| 2026-05-04 05:25 | 32.39520 | -76.35535 | 32128 ft | 381 kts | 231° |
| 2026-05-04 05:26 | 32.36071 | -76.40303 | 32128 ft | 380 kts | 231° |
| 2026-05-04 05:26 | 32.32640 | -76.45039 | 32127 ft | 380 kts | 231° |
| 2026-05-04 05:28 | 32.18833 | -76.64043 | 32124 ft | 380 kts | 231° |
| 2026-05-04 05:29 | 32.15350 | -76.68780 | 32130 ft | 381 kts | 230° |
| 2026-05-04 05:29 | 32.11876 | -76.73485 | 32129 ft | 381 kts | 230° |
| 2026-05-04 05:31 | 31.97972 | -76.92435 | 32126 ft | 382 kts | 230° |
| 2026-05-04 05:32 | 31.94506 | -76.97155 | 32127 ft | 381 kts | 230° |
| 2026-05-04 05:33 | 31.88814 | -77.03767 | 32127 ft | 387 kts | 225° |
| 2026-05-04 05:33 | 31.84870 | -77.08012 | 32132 ft | 382 kts | 225° |
| 2026-05-04 05:34 | 31.80946 | -77.12250 | 32125 ft | 383 kts | 225° |
| 2026-05-04 05:34 | 31.76995 | -77.16524 | 32121 ft | 385 kts | 225° |
| 2026-05-04 05:35 | 31.73086 | -77.20752 | 32118 ft | 383 kts | 225° |
| 2026-05-04 05:35 | 31.69154 | -77.25002 | 32116 ft | 383 kts | 225° |
| 2026-05-04 05:36 | 31.65196 | -77.29276 | 32122 ft | 386 kts | 225° |
| 2026-05-04 05:36 | 31.61253 | -77.33527 | 32119 ft | 384 kts | 225° |
| 2026-05-04 05:37 | 31.57327 | -77.37757 | 32118 ft | 382 kts | 225° |
| 2026-05-04 05:37 | 31.53391 | -77.41992 | 32112 ft | 385 kts | 225° |
| 2026-05-04 05:38 | 31.47464 | -77.48359 | 32109 ft | 384 kts | 225° |
| 2026-05-04 05:38 | 31.43528 | -77.52580 | 32117 ft | 384 kts | 225° |
| 2026-05-04 05:39 | 31.37588 | -77.58942 | 32113 ft | 383 kts | 225° |
| 2026-05-04 05:40 | 31.31658 | -77.65283 | 32112 ft | 387 kts | 225° |
| 2026-05-04 05:40 | 31.27669 | -77.69492 | 32107 ft | 387 kts | 224° |
| 2026-05-04 05:41 | 31.24195 | -77.74194 | 32118 ft | 382 kts | 234° |
| 2026-05-04 05:41 | 31.21045 | -77.79258 | 32107 ft | 386 kts | 234° |
| 2026-05-04 05:42 | 31.17911 | -77.84287 | 32110 ft | 383 kts | 234° |
| 2026-05-04 05:42 | 31.14760 | -77.89302 | 32106 ft | 384 kts | 234° |
| 2026-05-04 05:43 | 31.11578 | -77.94346 | 32113 ft | 386 kts | 234° |
| 2026-05-04 05:45 | 30.98856 | -78.14421 | 32107 ft | 385 kts | 234° |
| 2026-05-04 05:47 | 30.86071 | -78.34485 | 32101 ft | 385 kts | 234° |
| 2026-05-04 05:47 | 30.82863 | -78.39506 | 32106 ft | 387 kts | 234° |
| 2026-05-04 05:48 | 30.79650 | -78.44527 | 32102 ft | 385 kts | 234° |
| 2026-05-04 05:48 | 30.76459 | -78.49506 | 32108 ft | 386 kts | 234° |
| 2026-05-04 05:49 | 30.73240 | -78.54520 | 32107 ft | 388 kts | 234° |
| 2026-05-04 05:49 | 30.70019 | -78.59534 | 32104 ft | 385 kts | 234° |
| 2026-05-04 05:51 | 30.58267 | -78.80376 | 32100 ft | 386 kts | 241° |
| 2026-05-04 05:52 | 30.55688 | -78.85797 | 32105 ft | 386 kts | 240° |
| 2026-05-04 05:52 | 30.53077 | -78.91251 | 32095 ft | 387 kts | 240° |
| 2026-05-04 05:54 | 30.42540 | -79.13115 | 32095 ft | 387 kts | 240° |
| 2026-05-04 05:55 | 30.39922 | -79.18527 | 32097 ft | 388 kts | 241° |
| 2026-05-04 05:55 | 30.37274 | -79.23990 | 32094 ft | 387 kts | 240° |
| 2026-05-04 05:56 | 30.34639 | -79.29421 | 32094 ft | 387 kts | 240° |
| 2026-05-04 05:56 | 30.31993 | -79.34867 | 32099 ft | 388 kts | 241° |
| 2026-05-04 05:57 | 30.29357 | -79.40284 | 32095 ft | 387 kts | 240° |
| 2026-05-04 05:57 | 30.26718 | -79.45700 | 32097 ft | 386 kts | 241° |
| 2026-05-04 05:58 | 30.24065 | -79.51140 | 32094 ft | 387 kts | 240° |
| 2026-05-04 05:58 | 30.21429 | -79.56531 | 32093 ft | 386 kts | 241° |
| 2026-05-04 05:59 | 30.18771 | -79.61965 | 32091 ft | 386 kts | 241° |
| 2026-05-04 05:59 | 30.16119 | -79.67360 | 32090 ft | 387 kts | 240° |
| 2026-05-04 06:00 | 30.13433 | -79.72751 | 32092 ft | 386 kts | 240° |
| 2026-05-04 06:00 | 30.10760 | -79.78152 | 32087 ft | 387 kts | 240° |
| 2026-05-04 06:01 | 30.08108 | -79.83527 | 32093 ft | 386 kts | 240° |
| 2026-05-04 06:03 | 29.97089 | -80.04771 | 32084 ft | 386 kts | 236° |
| 2026-05-04 06:05 | 29.82968 | -80.27483 | 32024 ft | 385 kts | 236° |
| 2026-05-04 06:05 | 29.81413 | -80.29985 | 31691 ft | 386 kts | 237° |
| 2026-05-04 06:06 | 29.79853 | -80.32491 | 31290 ft | 379 kts | 237° |
| 2026-05-04 06:06 | 29.78340 | -80.34923 | 30894 ft | 372 kts | 236° |
| 2026-05-04 06:06 | 29.76855 | -80.37309 | 30498 ft | 368 kts | 236° |
| 2026-05-04 06:06 | 29.75361 | -80.39707 | 30092 ft | 366 kts | 236° |
| 2026-05-04 06:07 | 29.73886 | -80.42072 | 29687 ft | 365 kts | 236° |
| 2026-05-04 06:07 | 29.72409 | -80.44441 | 29249 ft | 365 kts | 236° |
| 2026-05-04 06:07 | 29.70939 | -80.46800 | 28797 ft | 364 kts | 236° |
| 2026-05-04 06:07 | 29.69456 | -80.49172 | 28338 ft | 360 kts | 236° |
| 2026-05-04 06:08 | 29.68003 | -80.51498 | 27885 ft | 357 kts | 236° |
| 2026-05-04 06:08 | 29.66555 | -80.53814 | 27431 ft | 355 kts | 236° |
| 2026-05-04 06:08 | 29.65124 | -80.56101 | 26980 ft | 353 kts | 236° |
| 2026-05-04 06:08 | 29.63698 | -80.58381 | 26529 ft | 350 kts | 236° |
| 2026-05-04 06:09 | 29.62289 | -80.60630 | 26081 ft | 349 kts | 236° |
| 2026-05-04 06:09 | 29.60873 | -80.62891 | 25627 ft | 346 kts | 236° |
| 2026-05-04 06:11 | 29.51215 | -80.78181 | 22739 ft | 330 kts | 236° |
| 2026-05-04 06:11 | 29.49884 | -80.80297 | 22425 ft | 331 kts | 236° |
| 2026-05-04 06:13 | 29.40460 | -80.95243 | 20206 ft | 328 kts | 236° |
| 2026-05-04 06:14 | 29.32498 | -81.07816 | 18318 ft | 323 kts | 236° |
| 2026-05-04 06:14 | 29.30872 | -81.09618 | 17989 ft | 332 kts | 220° |
| 2026-05-04 06:15 | 29.28759 | -81.10823 | 17656 ft | 342 kts | 204° |
| 2026-05-04 06:15 | 29.26395 | -81.11272 | 17333 ft | 351 kts | 188° |
| 2026-05-04 06:15 | 29.23911 | -81.11073 | 17007 ft | 357 kts | 180° |
| 2026-05-04 06:15 | 29.21438 | -81.10734 | 16688 ft | 357 kts | 180° |
| 2026-05-04 06:16 | 29.19003 | -81.10442 | 16375 ft | 353 kts | 181° |
| 2026-05-04 06:16 | 29.16547 | -81.10198 | 16066 ft | 349 kts | 182° |
| 2026-05-04 06:16 | 29.14118 | -81.09989 | 15828 ft | 347 kts | 182° |
| 2026-05-04 06:16 | 29.11707 | -81.09795 | 15605 ft | 346 kts | 182° |
| 2026-05-04 06:17 | 29.09300 | -81.09603 | 15367 ft | 346 kts | 182° |
| 2026-05-04 06:17 | 29.06893 | -81.09412 | 15130 ft | 346 kts | 182° |
| 2026-05-04 06:17 | 29.04490 | -81.09221 | 14911 ft | 342 kts | 182° |
| 2026-05-04 06:17 | 29.02113 | -81.09032 | 14694 ft | 341 kts | 182° |
| 2026-05-04 06:18 | 28.99707 | -81.08843 | 14475 ft | 343 kts | 182° |
| 2026-05-04 06:18 | 28.97349 | -81.08656 | 14258 ft | 340 kts | 182° |
| 2026-05-04 06:18 | 28.94967 | -81.08465 | 14037 ft | 341 kts | 182° |
| 2026-05-04 06:20 | 28.78489 | -81.07162 | 12473 ft | 336 kts | 181° |
| 2026-05-04 06:20 | 28.76161 | -81.06978 | 12246 ft | 334 kts | 181° |
| 2026-05-04 06:21 | 28.67076 | -81.06257 | 11362 ft | 312 kts | 181° |
| 2026-05-04 06:21 | 28.64941 | -81.06087 | 11149 ft | 303 kts | 181° |
| 2026-05-04 06:22 | 28.62845 | -81.06050 | 10915 ft | 290 kts | 193° |
| 2026-05-04 06:22 | 28.60903 | -81.06507 | 10696 ft | 280 kts | 199° |
| 2026-05-04 06:25 | 28.36994 | -81.13379 | 7814 ft | 266 kts | 197° |
| 2026-05-04 06:25 | 28.35183 | -81.13894 | 7594 ft | 267 kts | 197° |
| 2026-05-04 06:26 | 28.33404 | -81.14399 | 7377 ft | 263 kts | 197° |
| 2026-05-04 06:26 | 28.31629 | -81.14902 | 7155 ft | 258 kts | 196° |
| 2026-05-04 06:26 | 28.29900 | -81.15393 | 6935 ft | 255 kts | 196° |
| 2026-05-04 06:26 | 28.28175 | -81.15882 | 6712 ft | 254 kts | 196° |
| 2026-05-04 06:27 | 28.21555 | -81.17760 | 5989 ft | 239 kts | 194° |
| 2026-05-04 06:28 | 28.19916 | -81.18224 | 5965 ft | 239 kts | 195° |
| 2026-05-04 06:28 | 28.18307 | -81.18699 | 5962 ft | 240 kts | 200° |
| 2026-05-04 06:28 | 28.16961 | -81.19743 | 5956 ft | 237 kts | 234° |
| 2026-05-04 06:28 | 28.16404 | -81.21487 | 5955 ft | 238 kts | 270° |
| 2026-05-04 06:29 | 28.16847 | -81.23258 | 5957 ft | 240 kts | 304° |
| 2026-05-04 06:29 | 28.17960 | -81.24670 | 5957 ft | 243 kts | 313° |
| 2026-05-04 06:29 | 28.19129 | -81.26035 | 5952 ft | 230 kts | 313° |
| 2026-05-04 06:29 | 28.20313 | -81.27180 | 5958 ft | 221 kts | 327° |
| 2026-05-04 06:30 | 28.21768 | -81.27832 | 5727 ft | 231 kts | 349° |
| 2026-05-04 06:30 | 28.23377 | -81.28034 | 5262 ft | 236 kts | 357° |
| 2026-05-04 06:30 | 28.25023 | -81.28103 | 4767 ft | 240 kts | 1° |
| 2026-05-04 06:30 | 28.26712 | -81.28107 | 4282 ft | 244 kts | 2° |
| 2026-05-04 06:31 | 28.28420 | -81.28104 | 3893 ft | 243 kts | 2° |
| 2026-05-04 06:31 | 28.30113 | -81.28110 | 3580 ft | 239 kts | 2° |
| 2026-05-04 06:31 | 28.31768 | -81.28133 | 3073 ft | 239 kts | 2° |
| 2026-05-04 06:31 | 28.33427 | -81.28181 | 2387 ft | 239 kts | 2° |
| 2026-05-04 06:32 | 28.35105 | -81.28200 | 1712 ft | 237 kts | 4° |
| 2026-05-04 06:33 | 28.46049 | -81.28223 | 4175 ft | 241 kts | 4° |
| 2026-05-04 06:34 | 28.47625 | -81.27638 | 4745 ft | 241 kts | 39° |
| 2026-05-04 06:34 | 28.48671 | -81.26114 | 5009 ft | 258 kts | 69° |
| 2026-05-04 06:34 | 28.48866 | -81.24119 | 4951 ft | 254 kts | 101° |
| 2026-05-04 06:34 | 28.48125 | -81.22392 | 4850 ft | 242 kts | 129° |
| 2026-05-04 06:35 | 28.47001 | -81.20982 | 4720 ft | 233 kts | 132° |
| 2026-05-04 06:36 | 28.37545 | -81.16972 | 3488 ft | 218 kts | 178° |
| 2026-05-04 06:37 | 28.36039 | -81.16997 | 3317 ft | 211 kts | 178° |
| 2026-05-04 06:37 | 28.34588 | -81.17043 | 3141 ft | 204 kts | 178° |
| 2026-05-04 06:37 | 28.33182 | -81.17094 | 3001 ft | 198 kts | 178° |
| 2026-05-04 06:37 | 28.31791 | -81.17148 | 2966 ft | 199 kts | 178° |
| 2026-05-04 06:38 | 28.30403 | -81.17196 | 2954 ft | 197 kts | 178° |
| 2026-05-04 06:38 | 28.29016 | -81.17248 | 2951 ft | 199 kts | 178° |
| 2026-05-04 06:40 | 28.25120 | -81.25756 | 2002 ft | 200 kts | 308° |
| 2026-05-04 06:40 | 28.25937 | -81.27032 | 1963 ft | 194 kts | 316° |
| 2026-05-04 06:40 | 28.27047 | -81.27802 | 1958 ft | 186 kts | 352° |
| 2026-05-04 06:40 | 28.28311 | -81.28037 | 1958 ft | 180 kts | 1° |
| 2026-05-04 06:41 | 28.29499 | -81.28108 | 1953 ft | 162 kts | 4° |
| 2026-05-04 06:41 | 28.30628 | -81.28127 | 1962 ft | 159 kts | 5° |
| 2026-05-04 06:41 | 28.31686 | -81.28138 | 1983 ft | 146 kts | 5° |
| 2026-05-04 06:41 | 28.32693 | -81.28145 | 1843 ft | 144 kts | 6° |
| 2026-05-04 06:42 | 28.33692 | -81.28151 | 1679 ft | 143 kts | 6° |
| 2026-05-04 06:42 | 28.34698 | -81.28172 | 1505 ft | 143 kts | 5° |
| 2026-05-04 06:42 | 28.35705 | -81.28195 | 1349 ft | 145 kts | 4° |
| 2026-05-04 06:44 | 28.42686 | -81.28243 | 107 ft | 124 kts | 1° |
| 2026-05-04 06:44 | 28.43335 | -81.28247 | 106 ft | 61 kts | 359° |
| 2026-05-04 06:44 | 28.43700 | -81.28251 | 106 ft | 40 kts | 358° |
| 2026-05-04 06:45 | 28.43862 | -81.28346 | 106 ft | 18 kts | 297° |
| 2026-05-04 06:45 | 28.43875 | -81.28406 | 106 ft | 0 kts | 270° |
| 2026-05-04 06:45 | 28.43875 | -81.28408 | 106 ft | 1 kts | 270° |
| 2026-05-04 06:46 | 28.43875 | -81.28444 | 106 ft | 7 kts | 270° |
| 2026-05-04 06:46 | 28.43875 | -81.28532 | 106 ft | 14 kts | 271° |
| 2026-05-04 06:46 | 28.43876 | -81.28670 | 106 ft | 18 kts | 271° |
| 2026-05-04 06:46 | 28.43875 | -81.28819 | 106 ft | 18 kts | 269° |
| 2026-05-04 06:48 | 28.43567 | -81.29293 | 106 ft | 9 kts | 250° |
| 2026-05-04 06:48 | 28.43555 | -81.29363 | 106 ft | 8 kts | 272° |
| 2026-05-04 06:49 | 28.43551 | -81.29427 | 106 ft | 7 kts | 266° |
| 2026-05-04 06:50 | 28.43197 | -81.29801 | 106 ft | 16 kts | 181° |
| 2026-05-04 06:51 | 28.43086 | -81.29800 | 106 ft | 15 kts | 178° |
| 2026-05-04 06:51 | 28.42979 | -81.29799 | 106 ft | 14 kts | 180° |
| 2026-05-04 06:51 | 28.42878 | -81.29797 | 106 ft | 14 kts | 179° |
| 2026-05-04 06:51 | 28.42779 | -81.29796 | 106 ft | 13 kts | 180° |
| 2026-05-04 06:52 | 28.42685 | -81.29797 | 106 ft | 13 kts | 181° |
| 2026-05-04 06:52 | 28.42616 | -81.29811 | 106 ft | 8 kts | 230° |
| 2026-05-04 06:52 | 28.42572 | -81.29868 | 106 ft | 10 kts | 215° |
| 2026-05-04 06:52 | 28.42505 | -81.29905 | 106 ft | 11 kts | 207° |
| 2026-05-04 06:53 | 28.42442 | -81.29967 | 106 ft | 12 kts | 243° |
| 2026-05-04 06:53 | 28.42431 | -81.30065 | 106 ft | 12 kts | 286° |
| 2026-05-04 06:53 | 28.42462 | -81.30152 | 106 ft | 11 kts | 296° |
| 2026-05-04 06:53 | 28.42500 | -81.30228 | 106 ft | 11 kts | 298° |
| 2026-05-04 06:54 | 28.42542 | -81.30314 | 106 ft | 12 kts | 299° |
| 2026-05-04 06:54 | 28.42584 | -81.30398 | 106 ft | 12 kts | 300° |
| 2026-05-04 06:54 | 28.42640 | -81.30460 | 106 ft | 11 kts | 330° |
| 2026-05-04 06:54 | 28.42712 | -81.30480 | 106 ft | 10 kts | 4° |
| 2026-05-04 06:55 | 28.42746 | -81.30447 | 106 ft | 4 kts | 74° |
| 2026-05-04 06:55 | 28.42742 | -81.30409 | 106 ft | 5 kts | 113° |
| 2026-05-04 06:55 | 28.42730 | -81.30375 | 106 ft | 0 kts | 112° |